Iago, Texas
Current Conditions -  °F | °C
As of 12:15 AM on Saturday 29 Nov 2014 (Local Time) from KARM Reporting Station
Clear Clear  
Wind Chill: 54°   Ceiling: Unl
Heat Index: 54°   Visibility: 10mi
Dew Point: 53°   Wind: 3mph
Humidity: 95%   Direction: 160°SSE
Pressure: 30.14"   Gusts: NA
Location:  29.2399°N, 95.9345°W
Report Text: KARM 290615Z AUTO 16003KT 10SM CLR 12/12 A3014 RMK AO2 T01230116
Loading
Personal Weather Stations






























Interactive Weather Map New forecast layout! Learn more

10-Day Weather Forecast

Advertisements
Track Severe Weather on mobile